sensor_id;sensor_type;location;lat;lon;timestamp;P1;P2;P0
76784;PMS7003;66893;44.316;0.092;2024-02-14T00:02:07;8.75;6.00;5.75
76784;PMS7003;66893;44.316;0.092;2024-02-14T00:04:33;8.75;8.75;7.50
76784;PMS7003;66893;44.316;0.092;2024-02-14T00:06:59;7.50;6.50;5.25
76784;PMS7003;66893;44.316;0.092;2024-02-14T00:09:24;6.75;6.75;5.25
76784;PMS7003;66893;44.316;0.092;2024-02-14T00:11:50;11.50;8.75;6.75
76784;PMS7003;66893;44.316;0.092;2024-02-14T00:14:16;11.75;10.75;8.00
76784;PMS7003;66893;44.316;0.092;2024-02-14T00:16:41;9.50;9.50;7.75
76784;PMS7003;66893;44.316;0.092;2024-02-14T00:19:07;13.50;11.00;8.75
76784;PMS7003;66893;44.316;0.092;2024-02-14T00:21:32;11.50;11.50;8.00
76784;PMS7003;66893;44.316;0.092;2024-02-14T00:23:59;15.50;12.75;8.75
76784;PMS7003;66893;44.316;0.092;2024-02-14T00:26:25;13.25;10.25;7.75
76784;PMS7003;66893;44.316;0.092;2024-02-14T00:28:51;11.25;10.25;8.00
76784;PMS7003;66893;44.316;0.092;2024-02-14T00:31:17;14.25;14.00;10.25
76784;PMS7003;66893;44.316;0.092;2024-02-14T00:33:42;11.75;11.75;9.50
76784;PMS7003;66893;44.316;0.092;2024-02-14T00:36:09;13.00;10.75;8.25
76784;PMS7003;66893;44.316;0.092;2024-02-14T00:38:34;15.00;11.75;9.00
76784;PMS7003;66893;44.316;0.092;2024-02-14T00:41:00;15.00;11.00;8.50
76784;PMS7003;66893;44.316;0.092;2024-02-14T00:43:25;15.75;13.00;9.25
76784;PMS7003;66893;44.316;0.092;2024-02-14T00:45:50;11.50;9.00;6.50
76784;PMS7003;66893;44.316;0.092;2024-02-14T00:48:16;12.00;11.75;7.00
76784;PMS7003;66893;44.316;0.092;2024-02-14T00:50:41;12.00;9.00;6.75
76784;PMS7003;66893;44.316;0.092;2024-02-14T00:53:07;9.50;9.00;6.50
76784;PMS7003;66893;44.316;0.092;2024-02-14T00:55:32;10.00;8.50;6.25
76784;PMS7003;66893;44.316;0.092;2024-02-14T00:57:57;8.25;8.25;6.50
76784;PMS7003;66893;44.316;0.092;2024-02-14T01:00:23;9.50;8.75;6.25
76784;PMS7003;66893;44.316;0.092;2024-02-14T01:02:48;10.00;6.50;5.50
76784;PMS7003;66893;44.316;0.092;2024-02-14T01:05:14;10.00;8.25;5.75
76784;PMS7003;66893;44.316;0.092;2024-02-14T01:07:39;7.00;5.75;4.50
76784;PMS7003;66893;44.316;0.092;2024-02-14T01:10:05;6.50;5.50;5.25
76784;PMS7003;66893;44.316;0.092;2024-02-14T01:12:30;8.00;7.00;5.50
76784;PMS7003;66893;44.316;0.092;2024-02-14T01:14:56;7.50;7.50;5.75
76784;PMS7003;66893;44.316;0.092;2024-02-14T01:17:22;7.75;7.25;6.00
76784;PMS7003;66893;44.316;0.092;2024-02-14T01:19:47;8.75;7.00;5.25
76784;PMS7003;66893;44.316;0.092;2024-02-14T01:22:13;9.00;7.25;6.00
76784;PMS7003;66893;44.316;0.092;2024-02-14T01:24:41;8.00;6.25;5.25
76784;PMS7003;66893;44.316;0.092;2024-02-14T01:27:08;9.25;7.25;5.50
76784;PMS7003;66893;44.316;0.092;2024-02-14T01:29:34;7.00;7.00;5.25
76784;PMS7003;66893;44.316;0.092;2024-02-14T01:31:59;7.00;5.50;5.00
76784;PMS7003;66893;44.316;0.092;2024-02-14T01:34:25;6.50;6.50;5.25
76784;PMS7003;66893;44.316;0.092;2024-02-14T01:36:50;6.75;6.00;5.00
76784;PMS7003;66893;44.316;0.092;2024-02-14T01:39:15;7.00;6.50;5.25
76784;PMS7003;66893;44.316;0.092;2024-02-14T01:41:46;9.25;7.00;5.75
76784;PMS7003;66893;44.316;0.092;2024-02-14T01:44:13;8.25;7.00;5.25
76784;PMS7003;66893;44.316;0.092;2024-02-14T01:46:39;6.25;5.00;4.00
76784;PMS7003;66893;44.316;0.092;2024-02-14T01:49:05;5.50;5.50;4.25
76784;PMS7003;66893;44.316;0.092;2024-02-14T01:51:30;9.50;7.00;5.00
76784;PMS7003;66893;44.316;0.092;2024-02-14T01:53:57;9.75;7.00;5.50
76784;PMS7003;66893;44.316;0.092;2024-02-14T01:56:24;7.00;7.00;6.00
76784;PMS7003;66893;44.316;0.092;2024-02-14T01:58:50;6.50;6.50;5.00
76784;PMS7003;66893;44.316;0.092;2024-02-14T02:01:16;7.75;7.00;6.00
76784;PMS7003;66893;44.316;0.092;2024-02-14T02:03:42;6.00;6.00;5.00
76784;PMS7003;66893;44.316;0.092;2024-02-14T02:06:08;6.00;6.00;5.25
76784;PMS7003;66893;44.316;0.092;2024-02-14T02:08:34;6.00;6.00;4.00
76784;PMS7003;66893;44.316;0.092;2024-02-14T02:11:00;4.00;4.00;3.50
76784;PMS7003;66893;44.316;0.092;2024-02-14T02:13:25;5.00;5.00;4.00
76784;PMS7003;66893;44.316;0.092;2024-02-14T02:15:53;5.50;5.50;5.00
76784;PMS7003;66893;44.316;0.092;2024-02-14T02:18:19;5.50;5.50;4.00
76784;PMS7003;66893;44.316;0.092;2024-02-14T02:20:45;7.25;6.50;4.50
76784;PMS7003;66893;44.316;0.092;2024-02-14T02:23:11;6.00;6.00;4.25
76784;PMS7003;66893;44.316;0.092;2024-02-14T02:25:39;7.00;6.00;4.50
76784;PMS7003;66893;44.316;0.092;2024-02-14T02:28:06;4.25;4.00;3.00
76784;PMS7003;66893;44.316;0.092;2024-02-14T02:30:31;5.00;5.00;3.00
76784;PMS7003;66893;44.316;0.092;2024-02-14T02:32:56;8.25;5.00;4.00
76784;PMS7003;66893;44.316;0.092;2024-02-14T02:35:23;5.00;4.50;3.75
76784;PMS7003;66893;44.316;0.092;2024-02-14T02:37:49;6.50;5.00;4.75
76784;PMS7003;66893;44.316;0.092;2024-02-14T02:40:15;4.50;4.00;3.00
76784;PMS7003;66893;44.316;0.092;2024-02-14T02:42:42;7.00;5.00;4.75
76784;PMS7003;66893;44.316;0.092;2024-02-14T02:45:10;5.25;5.00;4.00
76784;PMS7003;66893;44.316;0.092;2024-02-14T02:47:36;4.75;4.75;4.25
76784;PMS7003;66893;44.316;0.092;2024-02-14T02:50:01;5.00;4.75;4.00
76784;PMS7003;66893;44.316;0.092;2024-02-14T02:52:28;5.50;5.50;4.75
76784;PMS7003;66893;44.316;0.092;2024-02-14T02:54:54;5.50;5.00;4.00
76784;PMS7003;66893;44.316;0.092;2024-02-14T02:57:19;3.25;3.00;2.50
76784;PMS7003;66893;44.316;0.092;2024-02-14T02:59:45;5.00;4.00;4.00
76784;PMS7003;66893;44.316;0.092;2024-02-14T03:02:13;7.00;6.00;4.00
76784;PMS7003;66893;44.316;0.092;2024-02-14T03:04:39;7.75;5.00;4.50
76784;PMS7003;66893;44.316;0.092;2024-02-14T03:07:05;6.00;4.75;4.00
76784;PMS7003;66893;44.316;0.092;2024-02-14T03:09:33;5.75;4.75;4.00
76784;PMS7003;66893;44.316;0.092;2024-02-14T03:11:59;5.75;5.75;4.25
76784;PMS7003;66893;44.316;0.092;2024-02-14T03:14:28;4.25;2.75;2.00
76784;PMS7003;66893;44.316;0.092;2024-02-14T03:17:04;5.50;5.00;4.00
76784;PMS7003;66893;44.316;0.092;2024-02-14T03:19:30;5.75;4.00;3.25
76784;PMS7003;66893;44.316;0.092;2024-02-14T03:21:55;4.50;4.00;3.50
76784;PMS7003;66893;44.316;0.092;2024-02-14T03:24:22;5.50;5.50;4.50
76784;PMS7003;66893;44.316;0.092;2024-02-14T03:26:50;5.00;5.00;4.00
76784;PMS7003;66893;44.316;0.092;2024-02-14T03:29:16;4.00;4.00;3.75
76784;PMS7003;66893;44.316;0.092;2024-02-14T03:31:42;4.25;4.25;3.75
76784;PMS7003;66893;44.316;0.092;2024-02-14T03:34:08;5.00;3.75;3.00
76784;PMS7003;66893;44.316;0.092;2024-02-14T03:36:36;5.00;4.25;4.00
76784;PMS7003;66893;44.316;0.092;2024-02-14T03:39:02;6.50;5.75;4.75
76784;PMS7003;66893;44.316;0.092;2024-02-14T03:41:29;5.50;4.25;3.75
76784;PMS7003;66893;44.316;0.092;2024-02-14T03:43:55;5.00;3.25;3.00
76784;PMS7003;66893;44.316;0.092;2024-02-14T03:46:23;3.50;3.50;3.00
76784;PMS7003;66893;44.316;0.092;2024-02-14T03:48:49;5.25;5.00;4.00
76784;PMS7003;66893;44.316;0.092;2024-02-14T03:51:14;4.75;4.75;3.50
76784;PMS7003;66893;44.316;0.092;2024-02-14T03:53:41;5.50;3.75;2.50
76784;PMS7003;66893;44.316;0.092;2024-02-14T03:56:06;1.50;1.25;0.75
76784;PMS7003;66893;44.316;0.092;2024-02-14T03:58:35;5.00;4.00;4.00
76784;PMS7003;66893;44.316;0.092;2024-02-14T04:01:05;5.00;5.00;4.00
76784;PMS7003;66893;44.316;0.092;2024-02-14T04:03:30;5.00;5.00;4.00
76784;PMS7003;66893;44.316;0.092;2024-02-14T04:05:56;5.50;5.50;4.25
76784;PMS7003;66893;44.316;0.092;2024-02-14T04:08:22;7.75;6.00;5.00
76784;PMS7003;66893;44.316;0.092;2024-02-14T04:10:47;5.25;5.25;4.00
76784;PMS7003;66893;44.316;0.092;2024-02-14T04:13:15;6.00;5.00;4.00
76784;PMS7003;66893;44.316;0.092;2024-02-14T04:15:41;5.00;5.00;4.00
76784;PMS7003;66893;44.316;0.092;2024-02-14T04:18:08;7.25;5.50;5.00
76784;PMS7003;66893;44.316;0.092;2024-02-14T04:20:33;6.50;5.00;4.00
76784;PMS7003;66893;44.316;0.092;2024-02-14T04:22:59;6.50;5.00;4.00
76784;PMS7003;66893;44.316;0.092;2024-02-14T04:25:25;4.00;4.00;3.00
76784;PMS7003;66893;44.316;0.092;2024-02-14T04:27:50;5.00;3.75;3.50
76784;PMS7003;66893;44.316;0.092;2024-02-14T04:30:16;5.00;5.00;4.00
76784;PMS7003;66893;44.316;0.092;2024-02-14T04:32:41;5.00;5.00;4.00
76784;PMS7003;66893;44.316;0.092;2024-02-14T04:35:08;4.75;4.75;4.00
76784;PMS7003;66893;44.316;0.092;2024-02-14T04:37:34;4.75;4.75;4.00
76784;PMS7003;66893;44.316;0.092;2024-02-14T04:39:59;6.50;6.50;5.00
76784;PMS7003;66893;44.316;0.092;2024-02-14T04:42:24;9.25;7.25;5.25
76784;PMS7003;66893;44.316;0.092;2024-02-14T04:44:50;9.50;6.25;6.00
76784;PMS7003;66893;44.316;0.092;2024-02-14T04:47:15;8.25;8.00;6.00
76784;PMS7003;66893;44.316;0.092;2024-02-14T04:49:41;10.75;9.50;8.00
76784;PMS7003;66893;44.316;0.092;2024-02-14T04:52:06;11.75;10.00;8.00
76784;PMS7003;66893;44.316;0.092;2024-02-14T04:54:33;11.25;11.00;8.00
76784;PMS7003;66893;44.316;0.092;2024-02-14T04:56:58;13.00;11.75;8.00
76784;PMS7003;66893;44.316;0.092;2024-02-14T04:59:23;16.00;14.00;11.25
76784;PMS7003;66893;44.316;0.092;2024-02-14T05:01:49;14.50;13.25;11.00
76784;PMS7003;66893;44.316;0.092;2024-02-14T05:04:15;19.00;15.25;13.00
76784;PMS7003;66893;44.316;0.092;2024-02-14T05:06:41;20.50;17.25;14.25
76784;PMS7003;66893;44.316;0.092;2024-02-14T05:09:07;18.75;18.25;14.00
76784;PMS7003;66893;44.316;0.092;2024-02-14T05:11:35;19.75;19.50;15.00
76784;PMS7003;66893;44.316;0.092;2024-02-14T05:14:01;18.50;18.00;14.00
76784;PMS7003;66893;44.316;0.092;2024-02-14T05:16:27;18.75;18.50;14.75
76784;PMS7003;66893;44.316;0.092;2024-02-14T05:18:52;18.00;17.00;13.00
76784;PMS7003;66893;44.316;0.092;2024-02-14T05:21:21;16.00;16.00;12.00
76784;PMS7003;66893;44.316;0.092;2024-02-14T05:23:47;17.50;17.50;13.50
76784;PMS7003;66893;44.316;0.092;2024-02-14T05:26:12;12.75;12.50;11.00
76784;PMS7003;66893;44.316;0.092;2024-02-14T05:28:37;20.25;17.25;13.75
76784;PMS7003;66893;44.316;0.092;2024-02-14T05:31:03;18.00;15.75;11.50
76784;PMS7003;66893;44.316;0.092;2024-02-14T05:33:28;18.00;15.75;12.75
76784;PMS7003;66893;44.316;0.092;2024-02-14T05:35:54;12.75;12.75;9.75
76784;PMS7003;66893;44.316;0.092;2024-02-14T05:38:19;15.75;15.00;13.00
76784;PMS7003;66893;44.316;0.092;2024-02-14T05:40:45;13.00;12.50;11.25
76784;PMS7003;66893;44.316;0.092;2024-02-14T05:43:11;14.50;14.50;12.00
76784;PMS7003;66893;44.316;0.092;2024-02-14T05:45:37;18.00;16.00;12.00
76784;PMS7003;66893;44.316;0.092;2024-02-14T05:48:03;15.75;15.50;11.75
76784;PMS7003;66893;44.316;0.092;2024-02-14T05:50:30;14.25;13.25;11.00
76784;PMS7003;66893;44.316;0.092;2024-02-14T05:52:56;19.75;18.50;12.75
76784;PMS7003;66893;44.316;0.092;2024-02-14T05:55:24;18.00;17.25;14.00
76784;PMS7003;66893;44.316;0.092;2024-02-14T05:57:50;18.50;16.00;11.75
76784;PMS7003;66893;44.316;0.092;2024-02-14T06:00:19;14.00;14.00;11.75
76784;PMS7003;66893;44.316;0.092;2024-02-14T06:02:46;17.25;12.50;11.00
76784;PMS7003;66893;44.316;0.092;2024-02-14T06:05:15;15.00;15.00;12.00
76784;PMS7003;66893;44.316;0.092;2024-02-14T06:07:41;15.75;12.00;11.75
76784;PMS7003;66893;44.316;0.092;2024-02-14T06:10:07;17.50;14.75;12.50
76784;PMS7003;66893;44.316;0.092;2024-02-14T06:12:33;13.50;12.00;9.00
76784;PMS7003;66893;44.316;0.092;2024-02-14T06:14:59;14.50;13.50;11.50
76784;PMS7003;66893;44.316;0.092;2024-02-14T06:17:25;13.75;12.00;11.00
76784;PMS7003;66893;44.316;0.092;2024-02-14T06:19:53;13.75;12.25;10.00
76784;PMS7003;66893;44.316;0.092;2024-02-14T06:22:19;13.50;12.50;10.50
76784;PMS7003;66893;44.316;0.092;2024-02-14T06:24:45;12.75;12.75;10.25
76784;PMS7003;66893;44.316;0.092;2024-02-14T06:27:13;16.75;13.75;11.00
76784;PMS7003;66893;44.316;0.092;2024-02-14T06:29:41;13.00;11.25;10.50
76784;PMS7003;66893;44.316;0.092;2024-02-14T06:32:07;13.00;12.50;10.00
76784;PMS7003;66893;44.316;0.092;2024-02-14T06:34:32;9.75;9.75;8.00
76784;PMS7003;66893;44.316;0.092;2024-02-14T06:36:58;12.50;10.25;9.25
76784;PMS7003;66893;44.316;0.092;2024-02-14T06:39:23;14.00;12.75;9.00
76784;PMS7003;66893;44.316;0.092;2024-02-14T06:41:49;11.75;11.75;10.00
76784;PMS7003;66893;44.316;0.092;2024-02-14T06:44:14;12.00;11.25;9.00
76784;PMS7003;66893;44.316;0.092;2024-02-14T06:46:39;14.50;13.25;11.00
76784;PMS7003;66893;44.316;0.092;2024-02-14T06:49:06;18.25;15.00;9.75
76784;PMS7003;66893;44.316;0.092;2024-02-14T06:51:32;14.75;13.00;10.00
76784;PMS7003;66893;44.316;0.092;2024-02-14T06:53:58;15.75;13.00;10.75
76784;PMS7003;66893;44.316;0.092;2024-02-14T06:56:24;17.25;13.75;10.00
76784;PMS7003;66893;44.316;0.092;2024-02-14T06:58:49;17.25;14.50;10.00
76784;PMS7003;66893;44.316;0.092;2024-02-14T07:01:18;1.00;0.50;0.00
76784;PMS7003;66893;44.316;0.092;2024-02-14T07:03:47;19.50;15.00;10.50
76784;PMS7003;66893;44.316;0.092;2024-02-14T07:06:13;15.00;14.25;10.75
76784;PMS7003;66893;44.316;0.092;2024-02-14T07:08:40;19.25;17.75;13.00
76784;PMS7003;66893;44.316;0.092;2024-02-14T07:11:06;17.00;14.50;11.00
76784;PMS7003;66893;44.316;0.092;2024-02-14T07:13:31;20.00;17.50;14.75
76784;PMS7003;66893;44.316;0.092;2024-02-14T07:15:56;16.50;15.50;13.00
76784;PMS7003;66893;44.316;0.092;2024-02-14T07:18:22;20.25;18.00;14.25
76784;PMS7003;66893;44.316;0.092;2024-02-14T07:20:47;17.00;16.25;13.00
76784;PMS7003;66893;44.316;0.092;2024-02-14T07:23:13;23.50;21.00;16.00
76784;PMS7003;66893;44.316;0.092;2024-02-14T07:25:38;22.50;19.75;15.00
76784;PMS7003;66893;44.316;0.092;2024-02-14T07:28:04;41.00;34.75;24.00
76784;PMS7003;66893;44.316;0.092;2024-02-14T07:30:30;30.25;29.25;23.00
76784;PMS7003;66893;44.316;0.092;2024-02-14T07:32:55;35.00;31.00;21.50
76784;PMS7003;66893;44.316;0.092;2024-02-14T07:35:21;31.00;28.75;20.50
76784;PMS7003;66893;44.316;0.092;2024-02-14T07:37:47;31.75;29.25;22.00
76784;PMS7003;66893;44.316;0.092;2024-02-14T07:40:13;29.50;29.50;21.75
76784;PMS7003;66893;44.316;0.092;2024-02-14T07:42:39;29.75;25.75;18.75
76784;PMS7003;66893;44.316;0.092;2024-02-14T07:45:04;30.00;26.25;19.50
76784;PMS7003;66893;44.316;0.092;2024-02-14T07:47:30;30.50;27.00;18.75
76784;PMS7003;66893;44.316;0.092;2024-02-14T07:49:55;28.25;22.50;18.00
76784;PMS7003;66893;44.316;0.092;2024-02-14T07:52:22;22.00;19.25;14.00
76784;PMS7003;66893;44.316;0.092;2024-02-14T07:54:51;24.75;22.00;15.00
76784;PMS7003;66893;44.316;0.092;2024-02-14T07:57:17;18.00;14.00;11.50
76784;PMS7003;66893;44.316;0.092;2024-02-14T07:59:43;20.00;20.00;13.75
76784;PMS7003;66893;44.316;0.092;2024-02-14T08:02:09;15.50;15.00;11.75
76784;PMS7003;66893;44.316;0.092;2024-02-14T08:04:34;21.25;18.00;13.50
76784;PMS7003;66893;44.316;0.092;2024-02-14T08:06:59;18.50;17.50;13.50
76784;PMS7003;66893;44.316;0.092;2024-02-14T08:09:25;17.50;15.50;12.50
76784;PMS7003;66893;44.316;0.092;2024-02-14T08:11:50;14.25;13.00;10.50
76784;PMS7003;66893;44.316;0.092;2024-02-14T08:14:18;16.75;15.50;13.00
76784;PMS7003;66893;44.316;0.092;2024-02-14T08:16:43;17.50;16.00;12.00
76784;PMS7003;66893;44.316;0.092;2024-02-14T08:19:09;16.75;16.00;12.00
76784;PMS7003;66893;44.316;0.092;2024-02-14T08:21:34;20.50;17.00;13.00
76784;PMS7003;66893;44.316;0.092;2024-02-14T08:24:00;18.25;16.00;12.00
76784;PMS7003;66893;44.316;0.092;2024-02-14T08:26:26;17.50;15.75;12.00
76784;PMS7003;66893;44.316;0.092;2024-02-14T08:28:51;23.00;20.50;16.25
76784;PMS7003;66893;44.316;0.092;2024-02-14T08:31:17;23.25;21.75;17.00
76784;PMS7003;66893;44.316;0.092;2024-02-14T08:33:42;17.75;16.25;14.25
76784;PMS7003;66893;44.316;0.092;2024-02-14T08:36:08;20.50;18.00;13.50
76784;PMS7003;66893;44.316;0.092;2024-02-14T08:38:34;24.25;20.75;16.00
76784;PMS7003;66893;44.316;0.092;2024-02-14T08:41:00;23.50;21.50;15.75
76784;PMS7003;66893;44.316;0.092;2024-02-14T08:43:26;26.50;21.50;16.25
76784;PMS7003;66893;44.316;0.092;2024-02-14T08:45:53;19.75;18.25;13.75
76784;PMS7003;66893;44.316;0.092;2024-02-14T08:48:19;20.75;18.25;13.25
76784;PMS7003;66893;44.316;0.092;2024-02-14T08:50:45;17.25;15.00;11.50
76784;PMS7003;66893;44.316;0.092;2024-02-14T08:53:11;17.25;17.00;13.25
76784;PMS7003;66893;44.316;0.092;2024-02-14T08:55:38;17.50;17.25;13.50
76784;PMS7003;66893;44.316;0.092;2024-02-14T08:58:04;18.25;16.00;13.50
76784;PMS7003;66893;44.316;0.092;2024-02-14T09:00:30;19.50;17.00;13.50
76784;PMS7003;66893;44.316;0.092;2024-02-14T09:02:56;23.00;20.00;16.00
76784;PMS7003;66893;44.316;0.092;2024-02-14T09:05:25;20.25;20.25;15.75
76784;PMS7003;66893;44.316;0.092;2024-02-14T09:07:50;23.50;21.50;14.50
76784;PMS7003;66893;44.316;0.092;2024-02-14T09:10:16;19.25;18.75;15.25
76784;PMS7003;66893;44.316;0.092;2024-02-14T09:12:41;23.75;21.50;16.50
76784;PMS7003;66893;44.316;0.092;2024-02-14T09:15:07;23.00;21.00;15.25
76784;PMS7003;66893;44.316;0.092;2024-02-14T09:17:33;24.75;23.00;17.00
76784;PMS7003;66893;44.316;0.092;2024-02-14T09:19:59;18.75;15.50;14.00
76784;PMS7003;66893;44.316;0.092;2024-02-14T09:22:24;19.00;19.00;13.25
76784;PMS7003;66893;44.316;0.092;2024-02-14T09:24:50;23.00;20.25;15.00
76784;PMS7003;66893;44.316;0.092;2024-02-14T09:27:16;18.25;18.00;14.00
76784;PMS7003;66893;44.316;0.092;2024-02-14T09:29:41;17.75;17.50;14.25
76784;PMS7003;66893;44.316;0.092;2024-02-14T09:32:07;18.75;17.00;13.25
76784;PMS7003;66893;44.316;0.092;2024-02-14T09:34:33;21.25;20.50;15.00
76784;PMS7003;66893;44.316;0.092;2024-02-14T09:36:59;24.00;20.00;15.00
76784;PMS7003;66893;44.316;0.092;2024-02-14T09:39:25;18.75;18.75;13.75
76784;PMS7003;66893;44.316;0.092;2024-02-14T09:41:58;17.00;17.00;12.75
76784;PMS7003;66893;44.316;0.092;2024-02-14T09:44:27;21.00;17.25;13.25
76784;PMS7003;66893;44.316;0.092;2024-02-14T09:46:54;18.75;17.25;12.75
76784;PMS7003;66893;44.316;0.092;2024-02-14T09:49:21;15.75;15.00;11.25
76784;PMS7003;66893;44.316;0.092;2024-02-14T09:51:47;18.50;16.00;12.50
76784;PMS7003;66893;44.316;0.092;2024-02-14T09:54:16;17.75;16.00;13.00
76784;PMS7003;66893;44.316;0.092;2024-02-14T09:56:47;15.75;15.75;12.00
76784;PMS7003;66893;44.316;0.092;2024-02-14T09:59:15;14.50;14.50;12.00
76784;PMS7003;66893;44.316;0.092;2024-02-14T10:01:41;19.75;17.75;11.00
76784;PMS7003;66893;44.316;0.092;2024-02-14T10:04:07;16.00;13.75;11.00
76784;PMS7003;66893;44.316;0.092;2024-02-14T10:06:33;14.25;14.00;10.25
76784;PMS7003;66893;44.316;0.092;2024-02-14T10:08:58;12.00;11.25;9.00
76784;PMS7003;66893;44.316;0.092;2024-02-14T10:11:24;17.25;16.00;11.75
76784;PMS7003;66893;44.316;0.092;2024-02-14T10:13:52;17.00;16.50;12.00
76784;PMS7003;66893;44.316;0.092;2024-02-14T10:16:19;10.00;10.00;8.75
76784;PMS7003;66893;44.316;0.092;2024-02-14T10:18:45;15.75;11.75;9.75
76784;PMS7003;66893;44.316;0.092;2024-02-14T10:21:14;15.00;14.25;11.00
76784;PMS7003;66893;44.316;0.092;2024-02-14T10:23:44;13.25;13.25;10.75
76784;PMS7003;66893;44.316;0.092;2024-02-14T10:26:14;15.00;15.00;11.25
76784;PMS7003;66893;44.316;0.092;2024-02-14T10:28:41;13.00;11.25;9.75
76784;PMS7003;66893;44.316;0.092;2024-02-14T10:31:07;15.00;12.25;8.75
76784;PMS7003;66893;44.316;0.092;2024-02-14T10:33:35;9.25;9.25;8.25
76784;PMS7003;66893;44.316;0.092;2024-02-14T10:36:00;12.50;11.25;8.00
76784;PMS7003;66893;44.316;0.092;2024-02-14T10:38:28;9.50;8.75;8.50
76784;PMS7003;66893;44.316;0.092;2024-02-14T10:40:58;14.00;14.00;10.00
76784;PMS7003;66893;44.316;0.092;2024-02-14T10:43:25;14.25;13.25;9.25
76784;PMS7003;66893;44.316;0.092;2024-02-14T10:45:52;13.25;12.00;9.00
76784;PMS7003;66893;44.316;0.092;2024-02-14T10:48:19;8.50;8.50;7.00
76784;PMS7003;66893;44.316;0.092;2024-02-14T10:50:51;12.75;12.00;9.00
76784;PMS7003;66893;44.316;0.092;2024-02-14T10:53:19;11.00;11.00;9.50
76784;PMS7003;66893;44.316;0.092;2024-02-14T10:55:46;11.25;11.00;8.50
76784;PMS7003;66893;44.316;0.092;2024-02-14T10:58:13;14.00;11.50;9.00
76784;PMS7003;66893;44.316;0.092;2024-02-14T11:00:41;12.75;9.25;8.00
76784;PMS7003;66893;44.316;0.092;2024-02-14T11:03:08;9.50;8.75;6.75
76784;PMS7003;66893;44.316;0.092;2024-02-14T11:05:44;12.25;11.00;9.25
76784;PMS7003;66893;44.316;0.092;2024-02-14T11:08:14;11.00;10.25;7.50
76784;PMS7003;66893;44.316;0.092;2024-02-14T11:10:40;13.25;10.75;8.00
76784;PMS7003;66893;44.316;0.092;2024-02-14T11:13:09;8.75;8.50;6.75
76784;PMS7003;66893;44.316;0.092;2024-02-14T11:15:38;9.50;8.50;6.25
76784;PMS7003;66893;44.316;0.092;2024-02-14T11:18:05;8.25;8.25;6.75
76784;PMS7003;66893;44.316;0.092;2024-02-14T11:20:35;11.25;9.00;7.25
76784;PMS7003;66893;44.316;0.092;2024-02-14T11:23:02;8.00;8.00;7.00
76784;PMS7003;66893;44.316;0.092;2024-02-14T11:25:30;8.50;8.50;7.50
76784;PMS7003;66893;44.316;0.092;2024-02-14T11:27:57;10.00;9.50;7.75
76784;PMS7003;66893;44.316;0.092;2024-02-14T11:30:26;8.50;8.25;6.75
76784;PMS7003;66893;44.316;0.092;2024-02-14T11:32:54;7.25;7.25;6.50
76784;PMS7003;66893;44.316;0.092;2024-02-14T11:35:19;8.75;5.75;5.00
76784;PMS7003;66893;44.316;0.092;2024-02-14T11:37:44;7.00;7.00;6.00
76784;PMS7003;66893;44.316;0.092;2024-02-14T11:40:19;7.75;6.50;5.00
76784;PMS7003;66893;44.316;0.092;2024-02-14T11:42:45;7.50;7.50;6.50
76784;PMS7003;66893;44.316;0.092;2024-02-14T11:45:12;8.00;7.75;6.00
76784;PMS7003;66893;44.316;0.092;2024-02-14T11:47:38;5.00;5.00;4.25
76784;PMS7003;66893;44.316;0.092;2024-02-14T11:50:04;16.25;10.75;5.00
76784;PMS7003;66893;44.316;0.092;2024-02-14T11:52:30;8.25;8.25;6.00
76784;PMS7003;66893;44.316;0.092;2024-02-14T11:54:55;9.75;8.75;6.00
76784;PMS7003;66893;44.316;0.092;2024-02-14T11:57:22;8.50;5.25;4.00
76784;PMS7003;66893;44.316;0.092;2024-02-14T11:59:50;6.25;5.00;4.00
76784;PMS7003;66893;44.316;0.092;2024-02-14T12:02:18;8.75;7.00;5.00
76784;PMS7003;66893;44.316;0.092;2024-02-14T12:04:45;4.00;4.00;3.25
76784;PMS7003;66893;44.316;0.092;2024-02-14T12:07:11;5.00;3.50;3.00
76784;PMS7003;66893;44.316;0.092;2024-02-14T12:09:38;8.00;5.25;4.50
76784;PMS7003;66893;44.316;0.092;2024-02-14T12:12:04;6.75;3.75;3.00
76784;PMS7003;66893;44.316;0.092;2024-02-14T12:14:29;4.50;4.50;3.25
76784;PMS7003;66893;44.316;0.092;2024-02-14T12:17:00;4.50;4.50;4.00
76784;PMS7003;66893;44.316;0.092;2024-02-14T12:19:29;8.25;5.00;4.00
76784;PMS7003;66893;44.316;0.092;2024-02-14T12:21:54;6.25;5.75;4.25
76784;PMS7003;66893;44.316;0.092;2024-02-14T12:24:21;4.50;4.25;4.00
76784;PMS7003;66893;44.316;0.092;2024-02-14T12:26:48;5.00;5.00;4.00
76784;PMS7003;66893;44.316;0.092;2024-02-14T12:29:14;6.25;6.25;5.00
76784;PMS7003;66893;44.316;0.092;2024-02-14T12:31:39;5.75;5.75;4.00
76784;PMS7003;66893;44.316;0.092;2024-02-14T12:34:05;6.00;6.00;4.50
76784;PMS7003;66893;44.316;0.092;2024-02-14T12:36:31;5.00;4.00;2.75
76784;PMS7003;66893;44.316;0.092;2024-02-14T12:38:58;5.50;3.25;2.50
76784;PMS7003;66893;44.316;0.092;2024-02-14T12:41:23;4.25;3.25;3.00
76784;PMS7003;66893;44.316;0.092;2024-02-14T12:43:51;5.00;4.00;3.00
76784;PMS7003;66893;44.316;0.092;2024-02-14T12:46:17;4.25;3.25;3.00
76784;PMS7003;66893;44.316;0.092;2024-02-14T12:48:43;4.50;4.50;4.00
76784;PMS7003;66893;44.316;0.092;2024-02-14T12:51:09;7.75;6.25;4.25
76784;PMS7003;66893;44.316;0.092;2024-02-14T12:53:35;5.50;5.50;4.50
76784;PMS7003;66893;44.316;0.092;2024-02-14T12:56:00;5.75;5.75;4.25
76784;PMS7003;66893;44.316;0.092;2024-02-14T12:58:26;5.00;5.00;3.75
76784;PMS7003;66893;44.316;0.092;2024-02-14T13:00:52;7.25;5.00;5.00
76784;PMS7003;66893;44.316;0.092;2024-02-14T13:03:18;5.50;5.00;4.00
76784;PMS7003;66893;44.316;0.092;2024-02-14T13:05:44;6.00;4.25;3.25
76784;PMS7003;66893;44.316;0.092;2024-02-14T13:08:10;5.00;5.00;4.00
76784;PMS7003;66893;44.316;0.092;2024-02-14T13:10:38;4.50;4.50;4.00
76784;PMS7003;66893;44.316;0.092;2024-02-14T13:13:04;4.00;4.00;2.75
76784;PMS7003;66893;44.316;0.092;2024-02-14T13:15:29;5.25;5.00;3.00
76784;PMS7003;66893;44.316;0.092;2024-02-14T13:17:55;4.00;3.00;3.00
76784;PMS7003;66893;44.316;0.092;2024-02-14T13:20:23;5.50;4.00;3.00
76784;PMS7003;66893;44.316;0.092;2024-02-14T13:22:48;5.25;3.75;3.25
76784;PMS7003;66893;44.316;0.092;2024-02-14T13:25:14;3.00;2.75;2.75
76784;PMS7003;66893;44.316;0.092;2024-02-14T13:27:40;5.25;4.00;3.00
76784;PMS7003;66893;44.316;0.092;2024-02-14T13:30:05;3.50;3.25;3.00
76784;PMS7003;66893;44.316;0.092;2024-02-14T13:32:32;1.25;1.25;1.00
76784;PMS7003;66893;44.316;0.092;2024-02-14T13:34:57;4.25;3.50;2.00
76784;PMS7003;66893;44.316;0.092;2024-02-14T13:37:23;4.50;3.00;3.00
76784;PMS7003;66893;44.316;0.092;2024-02-14T13:39:49;4.75;3.00;2.50
76784;PMS7003;66893;44.316;0.092;2024-02-14T13:42:15;3.50;3.00;3.00
76784;PMS7003;66893;44.316;0.092;2024-02-14T13:44:41;3.00;3.00;2.00
76784;PMS7003;66893;44.316;0.092;2024-02-14T13:47:06;2.00;2.00;1.25
76784;PMS7003;66893;44.316;0.092;2024-02-14T13:49:31;3.50;3.00;3.00
76784;PMS7003;66893;44.316;0.092;2024-02-14T13:51:57;4.00;3.00;3.00
76784;PMS7003;66893;44.316;0.092;2024-02-14T13:54:23;3.00;3.00;2.00
76784;PMS7003;66893;44.316;0.092;2024-02-14T13:56:49;2.75;2.75;2.00
76784;PMS7003;66893;44.316;0.092;2024-02-14T13:59:15;1.75;1.50;1.00
76784;PMS7003;66893;44.316;0.092;2024-02-14T14:01:41;3.00;3.00;3.00